sensor_id;sensor_type;location;lat;lon;timestamp;P1;durP1;ratioP1;P2;durP2;ratioP2
11839;SDS011;5979;50.800;4.904;2023-11-21T00:00:14;34.33;;;21.05;;
11839;SDS011;5979;50.800;4.904;2023-11-21T00:02:40;34.95;;;22.55;;
11839;SDS011;5979;50.800;4.904;2023-11-21T00:05:11;36.80;;;23.02;;
11839;SDS011;5979;50.800;4.904;2023-11-21T00:07:39;41.78;;;24.52;;
11839;SDS011;5979;50.800;4.904;2023-11-21T00:10:05;37.33;;;22.83;;
11839;SDS011;5979;50.800;4.904;2023-11-21T00:12:31;41.03;;;25.27;;
11839;SDS011;5979;50.800;4.904;2023-11-21T00:14:58;37.83;;;23.17;;
11839;SDS011;5979;50.800;4.904;2023-11-21T00:17:24;39.22;;;23.60;;
11839;SDS011;5979;50.800;4.904;2023-11-21T00:19:50;40.97;;;24.45;;
11839;SDS011;5979;50.800;4.904;2023-11-21T00:22:24;46.00;;;25.17;;
11839;SDS011;5979;50.800;4.904;2023-11-21T00:24:50;43.63;;;25.10;;
11839;SDS011;5979;50.800;4.904;2023-11-21T00:27:16;40.80;;;24.23;;
11839;SDS011;5979;50.800;4.904;2023-11-21T00:29:42;45.85;;;24.58;;
11839;SDS011;5979;50.800;4.904;2023-11-21T00:32:07;37.42;;;22.67;;
11839;SDS011;5979;50.800;4.904;2023-11-21T00:34:34;34.40;;;21.35;;
11839;SDS011;5979;50.800;4.904;2023-11-21T00:36:59;31.67;;;19.60;;
11839;SDS011;5979;50.800;4.904;2023-11-21T00:39:25;33.70;;;20.08;;
11839;SDS011;5979;50.800;4.904;2023-11-21T00:41:51;32.55;;;19.55;;
11839;SDS011;5979;50.800;4.904;2023-11-21T00:44:17;34.58;;;19.80;;
11839;SDS011;5979;50.800;4.904;2023-11-21T00:46:43;20.98;;;14.48;;
11839;SDS011;5979;50.800;4.904;2023-11-21T00:49:08;29.75;;;18.58;;
11839;SDS011;5979;50.800;4.904;2023-11-21T00:51:34;30.42;;;17.40;;
11839;SDS011;5979;50.800;4.904;2023-11-21T00:54:01;26.13;;;16.35;;
11839;SDS011;5979;50.800;4.904;2023-11-21T00:56:27;27.27;;;16.52;;
11839;SDS011;5979;50.800;4.904;2023-11-21T00:58:53;23.33;;;15.70;;
11839;SDS011;5979;50.800;4.904;2023-11-21T01:01:19;29.00;;;18.05;;
11839;SDS011;5979;50.800;4.904;2023-11-21T01:03:47;23.98;;;15.98;;
11839;SDS011;5979;50.800;4.904;2023-11-21T01:06:13;32.00;;;17.83;;
11839;SDS011;5979;50.800;4.904;2023-11-21T01:08:40;29.15;;;17.35;;
11839;SDS011;5979;50.800;4.904;2023-11-21T01:11:05;25.85;;;15.75;;
11839;SDS011;5979;50.800;4.904;2023-11-21T01:13:33;22.35;;;14.70;;
11839;SDS011;5979;50.800;4.904;2023-11-21T01:16:00;24.20;;;16.75;;
11839;SDS011;5979;50.800;4.904;2023-11-21T01:18:26;22.00;;;15.70;;
11839;SDS011;5979;50.800;4.904;2023-11-21T01:20:52;26.60;;;17.48;;
11839;SDS011;5979;50.800;4.904;2023-11-21T01:23:22;24.30;;;16.55;;
11839;SDS011;5979;50.800;4.904;2023-11-21T01:25:48;26.45;;;16.27;;
11839;SDS011;5979;50.800;4.904;2023-11-21T01:28:14;24.92;;;15.80;;
11839;SDS011;5979;50.800;4.904;2023-11-21T01:30:39;24.92;;;15.98;;
11839;SDS011;5979;50.800;4.904;2023-11-21T01:33:05;26.73;;;17.13;;
11839;SDS011;5979;50.800;4.904;2023-11-21T01:35:31;25.35;;;16.35;;
11839;SDS011;5979;50.800;4.904;2023-11-21T01:37:57;23.45;;;14.75;;
11839;SDS011;5979;50.800;4.904;2023-11-21T01:40:22;21.45;;;14.45;;
11839;SDS011;5979;50.800;4.904;2023-11-21T01:42:49;21.00;;;13.98;;
11839;SDS011;5979;50.800;4.904;2023-11-21T01:45:15;23.00;;;14.90;;
11839;SDS011;5979;50.800;4.904;2023-11-21T01:47:41;24.90;;;14.65;;
11839;SDS011;5979;50.800;4.904;2023-11-21T01:50:08;24.85;;;15.15;;
11839;SDS011;5979;50.800;4.904;2023-11-21T01:52:37;22.67;;;13.80;;
11839;SDS011;5979;50.800;4.904;2023-11-21T01:55:04;25.52;;;14.85;;
11839;SDS011;5979;50.800;4.904;2023-11-21T01:57:33;23.08;;;15.13;;
11839;SDS011;5979;50.800;4.904;2023-11-21T02:00:00;21.58;;;13.18;;
11839;SDS011;5979;50.800;4.904;2023-11-21T02:02:42;20.48;;;13.60;;
11839;SDS011;5979;50.800;4.904;2023-11-21T02:05:09;23.00;;;13.77;;
11839;SDS011;5979;50.800;4.904;2023-11-21T02:07:37;16.55;;;11.90;;
11839;SDS011;5979;50.800;4.904;2023-11-21T02:10:04;25.08;;;14.60;;
11839;SDS011;5979;50.800;4.904;2023-11-21T02:12:31;24.33;;;13.65;;
11839;SDS011;5979;50.800;4.904;2023-11-21T02:14:56;29.73;;;14.90;;
11839;SDS011;5979;50.800;4.904;2023-11-21T02:17:22;22.38;;;12.75;;
11839;SDS011;5979;50.800;4.904;2023-11-21T02:19:48;22.25;;;12.75;;
11839;SDS011;5979;50.800;4.904;2023-11-21T02:22:16;23.13;;;14.27;;
11839;SDS011;5979;50.800;4.904;2023-11-21T02:24:45;20.55;;;12.18;;
11839;SDS011;5979;50.800;4.904;2023-11-21T02:27:11;21.23;;;12.32;;
11839;SDS011;5979;50.800;4.904;2023-11-21T02:29:38;21.67;;;12.30;;
11839;SDS011;5979;50.800;4.904;2023-11-21T02:32:04;22.63;;;12.63;;
11839;SDS011;5979;50.800;4.904;2023-11-21T02:34:30;18.30;;;12.43;;
11839;SDS011;5979;50.800;4.904;2023-11-21T02:36:56;23.10;;;13.55;;
11839;SDS011;5979;50.800;4.904;2023-11-21T02:39:22;22.20;;;12.52;;
11839;SDS011;5979;50.800;4.904;2023-11-21T02:41:49;22.55;;;13.20;;
11839;SDS011;5979;50.800;4.904;2023-11-21T02:44:15;21.92;;;14.10;;
11839;SDS011;5979;50.800;4.904;2023-11-21T02:46:41;25.90;;;13.93;;
11839;SDS011;5979;50.800;4.904;2023-11-21T02:49:06;25.00;;;14.95;;
11839;SDS011;5979;50.800;4.904;2023-11-21T02:51:35;24.88;;;14.30;;
11839;SDS011;5979;50.800;4.904;2023-11-21T02:54:03;31.27;;;18.08;;
11839;SDS011;5979;50.800;4.904;2023-11-21T02:56:31;26.55;;;16.23;;
11839;SDS011;5979;50.800;4.904;2023-11-21T02:58:59;27.15;;;14.85;;
11839;SDS011;5979;50.800;4.904;2023-11-21T03:01:25;27.45;;;15.60;;
11839;SDS011;5979;50.800;4.904;2023-11-21T03:03:52;30.00;;;17.10;;
11839;SDS011;5979;50.800;4.904;2023-11-21T03:06:21;31.70;;;17.48;;
11839;SDS011;5979;50.800;4.904;2023-11-21T03:08:47;32.00;;;16.88;;
11839;SDS011;5979;50.800;4.904;2023-11-21T03:11:13;30.33;;;17.08;;
11839;SDS011;5979;50.800;4.904;2023-11-21T03:13:40;26.73;;;15.75;;
11839;SDS011;5979;50.800;4.904;2023-11-21T03:16:09;31.15;;;17.27;;
11839;SDS011;5979;50.800;4.904;2023-11-21T03:18:36;33.28;;;17.30;;
11839;SDS011;5979;50.800;4.904;2023-11-21T03:21:06;30.15;;;17.38;;
11839;SDS011;5979;50.800;4.904;2023-11-21T03:23:35;33.08;;;17.63;;
11839;SDS011;5979;50.800;4.904;2023-11-21T03:26:02;29.48;;;16.65;;
11839;SDS011;5979;50.800;4.904;2023-11-21T03:28:28;29.27;;;17.40;;
11839;SDS011;5979;50.800;4.904;2023-11-21T03:30:54;28.73;;;15.82;;
11839;SDS011;5979;50.800;4.904;2023-11-21T03:33:21;30.58;;;16.50;;
11839;SDS011;5979;50.800;4.904;2023-11-21T03:35:47;26.83;;;15.52;;
11839;SDS011;5979;50.800;4.904;2023-11-21T03:38:13;34.45;;;15.95;;
11839;SDS011;5979;50.800;4.904;2023-11-21T03:40:39;25.00;;;13.75;;
11839;SDS011;5979;50.800;4.904;2023-11-21T03:43:05;23.23;;;13.68;;
11839;SDS011;5979;50.800;4.904;2023-11-21T03:45:31;25.48;;;13.15;;
11839;SDS011;5979;50.800;4.904;2023-11-21T03:47:57;25.77;;;13.85;;
11839;SDS011;5979;50.800;4.904;2023-11-21T03:50:23;21.70;;;13.18;;
11839;SDS011;5979;50.800;4.904;2023-11-21T03:52:48;22.17;;;13.05;;
11839;SDS011;5979;50.800;4.904;2023-11-21T03:55:14;22.73;;;13.40;;
11839;SDS011;5979;50.800;4.904;2023-11-21T03:57:40;26.83;;;14.55;;
11839;SDS011;5979;50.800;4.904;2023-11-21T04:00:06;27.45;;;13.82;;
11839;SDS011;5979;50.800;4.904;2023-11-21T04:02:35;23.20;;;13.43;;
11839;SDS011;5979;50.800;4.904;2023-11-21T04:05:01;25.80;;;13.60;;
11839;SDS011;5979;50.800;4.904;2023-11-21T04:07:26;22.65;;;13.40;;
11839;SDS011;5979;50.800;4.904;2023-11-21T04:09:52;20.98;;;12.40;;
11839;SDS011;5979;50.800;4.904;2023-11-21T04:12:18;20.40;;;12.13;;
11839;SDS011;5979;50.800;4.904;2023-11-21T04:14:44;24.02;;;12.93;;
11839;SDS011;5979;50.800;4.904;2023-11-21T04:17:10;21.35;;;12.57;;
11839;SDS011;5979;50.800;4.904;2023-11-21T04:19:36;20.15;;;11.63;;
11839;SDS011;5979;50.800;4.904;2023-11-21T04:22:02;23.77;;;13.90;;
11839;SDS011;5979;50.800;4.904;2023-11-21T04:24:29;18.55;;;12.18;;
11839;SDS011;5979;50.800;4.904;2023-11-21T04:26:54;22.58;;;13.30;;
11839;SDS011;5979;50.800;4.904;2023-11-21T04:29:20;21.10;;;13.15;;
11839;SDS011;5979;50.800;4.904;2023-11-21T04:31:46;26.08;;;13.45;;
11839;SDS011;5979;50.800;4.904;2023-11-21T04:34:13;20.95;;;12.48;;
11839;SDS011;5979;50.800;4.904;2023-11-21T04:36:39;25.42;;;14.10;;
11839;SDS011;5979;50.800;4.904;2023-11-21T04:39:05;23.38;;;12.55;;
11839;SDS011;5979;50.800;4.904;2023-11-21T04:41:31;19.33;;;11.55;;
11839;SDS011;5979;50.800;4.904;2023-11-21T04:43:57;19.00;;;10.90;;
11839;SDS011;5979;50.800;4.904;2023-11-21T04:46:25;19.88;;;11.57;;
11839;SDS011;5979;50.800;4.904;2023-11-21T04:48:51;16.60;;;11.00;;
11839;SDS011;5979;50.800;4.904;2023-11-21T04:51:17;21.33;;;11.40;;
11839;SDS011;5979;50.800;4.904;2023-11-21T04:53:43;19.33;;;11.55;;
11839;SDS011;5979;50.800;4.904;2023-11-21T04:56:08;18.70;;;11.73;;
11839;SDS011;5979;50.800;4.904;2023-11-21T04:58:34;22.33;;;11.55;;
11839;SDS011;5979;50.800;4.904;2023-11-21T05:01:00;22.60;;;11.70;;
11839;SDS011;5979;50.800;4.904;2023-11-21T05:03:26;19.95;;;11.68;;
11839;SDS011;5979;50.800;4.904;2023-11-21T05:05:54;20.25;;;11.73;;
11839;SDS011;5979;50.800;4.904;2023-11-21T05:08:20;16.45;;;10.80;;
11839;SDS011;5979;50.800;4.904;2023-11-21T05:10:47;15.75;;;10.98;;
11839;SDS011;5979;50.800;4.904;2023-11-21T05:13:14;19.50;;;11.82;;
11839;SDS011;5979;50.800;4.904;2023-11-21T05:15:42;18.55;;;11.65;;
11839;SDS011;5979;50.800;4.904;2023-11-21T05:18:09;20.17;;;11.90;;
11839;SDS011;5979;50.800;4.904;2023-11-21T05:20:35;18.92;;;12.18;;
11839;SDS011;5979;50.800;4.904;2023-11-21T05:23:01;19.92;;;11.10;;
11839;SDS011;5979;50.800;4.904;2023-11-21T05:25:27;18.73;;;10.65;;
11839;SDS011;5979;50.800;4.904;2023-11-21T05:27:52;20.35;;;11.75;;
11839;SDS011;5979;50.800;4.904;2023-11-21T05:30:19;19.88;;;12.13;;
11839;SDS011;5979;50.800;4.904;2023-11-21T05:32:46;16.20;;;11.20;;
11839;SDS011;5979;50.800;4.904;2023-11-21T05:35:12;13.68;;;8.88;;
11839;SDS011;5979;50.800;4.904;2023-11-21T05:37:41;14.20;;;9.73;;
11839;SDS011;5979;50.800;4.904;2023-11-21T05:40:07;15.30;;;10.55;;
11839;SDS011;5979;50.800;4.904;2023-11-21T05:42:35;13.82;;;9.77;;
11839;SDS011;5979;50.800;4.904;2023-11-21T05:45:03;14.90;;;9.32;;
11839;SDS011;5979;50.800;4.904;2023-11-21T05:47:36;14.60;;;9.90;;
11839;SDS011;5979;50.800;4.904;2023-11-21T05:50:06;16.67;;;10.02;;
11839;SDS011;5979;50.800;4.904;2023-11-21T05:52:35;16.65;;;10.40;;
11839;SDS011;5979;50.800;4.904;2023-11-21T05:55:02;16.67;;;10.90;;
11839;SDS011;5979;50.800;4.904;2023-11-21T05:57:29;14.02;;;9.35;;
11839;SDS011;5979;50.800;4.904;2023-11-21T05:59:55;18.10;;;10.85;;
11839;SDS011;5979;50.800;4.904;2023-11-21T06:02:21;20.35;;;11.93;;
11839;SDS011;5979;50.800;4.904;2023-11-21T06:04:47;19.50;;;11.15;;
11839;SDS011;5979;50.800;4.904;2023-11-21T06:07:12;17.38;;;10.98;;
11839;SDS011;5979;50.800;4.904;2023-11-21T06:09:38;14.02;;;9.50;;
11839;SDS011;5979;50.800;4.904;2023-11-21T06:12:04;10.07;;;8.20;;
11839;SDS011;5979;50.800;4.904;2023-11-21T06:14:30;14.60;;;9.35;;
11839;SDS011;5979;50.800;4.904;2023-11-21T06:16:58;16.17;;;9.27;;
11839;SDS011;5979;50.800;4.904;2023-11-21T06:19:24;14.40;;;9.88;;
11839;SDS011;5979;50.800;4.904;2023-11-21T06:21:49;16.45;;;10.45;;
11839;SDS011;5979;50.800;4.904;2023-11-21T06:24:15;18.55;;;10.88;;
11839;SDS011;5979;50.800;4.904;2023-11-21T06:26:42;16.02;;;9.70;;
11839;SDS011;5979;50.800;4.904;2023-11-21T06:29:09;21.27;;;12.63;;
11839;SDS011;5979;50.800;4.904;2023-11-21T06:31:36;20.10;;;13.40;;
11839;SDS011;5979;50.800;4.904;2023-11-21T06:34:02;22.65;;;14.07;;
11839;SDS011;5979;50.800;4.904;2023-11-21T06:36:28;21.30;;;12.75;;
11839;SDS011;5979;50.800;4.904;2023-11-21T06:38:54;23.77;;;14.38;;
11839;SDS011;5979;50.800;4.904;2023-11-21T06:41:20;25.90;;;14.95;;
11839;SDS011;5979;50.800;4.904;2023-11-21T06:43:45;22.10;;;13.00;;
11839;SDS011;5979;50.800;4.904;2023-11-21T06:46:12;24.55;;;14.98;;
11839;SDS011;5979;50.800;4.904;2023-11-21T06:48:44;25.33;;;14.57;;
11839;SDS011;5979;50.800;4.904;2023-11-21T06:51:10;25.80;;;14.52;;
11839;SDS011;5979;50.800;4.904;2023-11-21T06:53:36;22.02;;;13.20;;
11839;SDS011;5979;50.800;4.904;2023-11-21T06:56:02;20.02;;;13.68;;
11839;SDS011;5979;50.800;4.904;2023-11-21T06:58:28;25.33;;;14.73;;
11839;SDS011;5979;50.800;4.904;2023-11-21T07:00:54;23.77;;;14.95;;
11839;SDS011;5979;50.800;4.904;2023-11-21T07:03:19;29.08;;;16.42;;
11839;SDS011;5979;50.800;4.904;2023-11-21T07:05:45;24.67;;;15.68;;
11839;SDS011;5979;50.800;4.904;2023-11-21T07:08:11;23.73;;;15.15;;
11839;SDS011;5979;50.800;4.904;2023-11-21T07:10:37;25.33;;;15.30;;
11839;SDS011;5979;50.800;4.904;2023-11-21T07:13:03;26.13;;;14.95;;
11839;SDS011;5979;50.800;4.904;2023-11-21T07:15:29;21.25;;;12.65;;
11839;SDS011;5979;50.800;4.904;2023-11-21T07:17:55;22.10;;;14.05;;
11839;SDS011;5979;50.800;4.904;2023-11-21T07:20:20;24.85;;;13.57;;
11839;SDS011;5979;50.800;4.904;2023-11-21T07:22:46;23.48;;;14.07;;
11839;SDS011;5979;50.800;4.904;2023-11-21T07:25:12;22.42;;;13.55;;
11839;SDS011;5979;50.800;4.904;2023-11-21T07:27:38;26.42;;;14.18;;
11839;SDS011;5979;50.800;4.904;2023-11-21T07:30:03;22.33;;;14.05;;
11839;SDS011;5979;50.800;4.904;2023-11-21T07:32:31;24.08;;;14.13;;
11839;SDS011;5979;50.800;4.904;2023-11-21T07:34:57;22.67;;;14.15;;
11839;SDS011;5979;50.800;4.904;2023-11-21T07:37:24;27.40;;;15.18;;
11839;SDS011;5979;50.800;4.904;2023-11-21T07:39:53;25.67;;;15.43;;
11839;SDS011;5979;50.800;4.904;2023-11-21T07:42:22;26.83;;;14.48;;
11839;SDS011;5979;50.800;4.904;2023-11-21T07:44:51;24.83;;;14.73;;
11839;SDS011;5979;50.800;4.904;2023-11-21T07:47:17;22.92;;;14.30;;
11839;SDS011;5979;50.800;4.904;2023-11-21T07:49:43;21.58;;;13.10;;
11839;SDS011;5979;50.800;4.904;2023-11-21T07:52:10;26.15;;;14.63;;
11839;SDS011;5979;50.800;4.904;2023-11-21T07:54:35;22.63;;;13.50;;
11839;SDS011;5979;50.800;4.904;2023-11-21T07:57:01;19.40;;;12.43;;
11839;SDS011;5979;50.800;4.904;2023-11-21T07:59:29;22.92;;;12.88;;
11839;SDS011;5979;50.800;4.904;2023-11-21T08:01:55;24.10;;;14.35;;
11839;SDS011;5979;50.800;4.904;2023-11-21T08:04:21;21.20;;;12.82;;
11839;SDS011;5979;50.800;4.904;2023-11-21T08:06:47;16.80;;;11.18;;
11839;SDS011;5979;50.800;4.904;2023-11-21T08:09:13;18.63;;;12.50;;
11839;SDS011;5979;50.800;4.904;2023-11-21T08:11:40;19.23;;;12.77;;
11839;SDS011;5979;50.800;4.904;2023-11-21T08:14:07;18.13;;;11.27;;
11839;SDS011;5979;50.800;4.904;2023-11-21T08:16:32;17.20;;;10.95;;
11839;SDS011;5979;50.800;4.904;2023-11-21T08:18:58;20.13;;;12.35;;
11839;SDS011;5979;50.800;4.904;2023-11-21T08:24:08;17.27;;;12.07;;
11839;SDS011;5979;50.800;4.904;2023-11-21T08:26:36;19.63;;;12.52;;
11839;SDS011;5979;50.800;4.904;2023-11-21T08:29:03;21.17;;;11.68;;
11839;SDS011;5979;50.800;4.904;2023-11-21T08:31:28;16.25;;;11.38;;
11839;SDS011;5979;50.800;4.904;2023-11-21T08:33:54;19.58;;;12.27;;
11839;SDS011;5979;50.800;4.904;2023-11-21T08:36:23;17.77;;;13.00;;
11839;SDS011;5979;50.800;4.904;2023-11-21T08:38:49;18.95;;;11.23;;
11839;SDS011;5979;50.800;4.904;2023-11-21T08:41:17;18.05;;;10.82;;
11839;SDS011;5979;50.800;4.904;2023-11-21T08:43:47;19.58;;;11.27;;
11839;SDS011;5979;50.800;4.904;2023-11-21T08:46:14;20.55;;;11.13;;
11839;SDS011;5979;50.800;4.904;2023-11-21T08:48:40;19.40;;;11.35;;
11839;SDS011;5979;50.800;4.904;2023-11-21T08:51:06;16.70;;;9.68;;
11839;SDS011;5979;50.800;4.904;2023-11-21T08:53:35;17.13;;;11.10;;
11839;SDS011;5979;50.800;4.904;2023-11-21T08:56:00;23.05;;;11.98;;
11839;SDS011;5979;50.800;4.904;2023-11-21T08:58:26;15.45;;;10.50;;
11839;SDS011;5979;50.800;4.904;2023-11-21T09:00:52;17.13;;;10.73;;
11839;SDS011;5979;50.800;4.904;2023-11-21T09:03:18;16.52;;;11.02;;
11839;SDS011;5979;50.800;4.904;2023-11-21T09:05:44;18.38;;;11.38;;
11839;SDS011;5979;50.800;4.904;2023-11-21T09:08:10;19.05;;;11.23;;
11839;SDS011;5979;50.800;4.904;2023-11-21T09:10:35;19.20;;;12.20;;
11839;SDS011;5979;50.800;4.904;2023-11-21T09:13:02;18.65;;;9.85;;
11839;SDS011;5979;50.800;4.904;2023-11-21T09:15:28;16.17;;;10.15;;
11839;SDS011;5979;50.800;4.904;2023-11-21T09:17:53;21.85;;;12.00;;
11839;SDS011;5979;50.800;4.904;2023-11-21T09:20:19;17.40;;;11.27;;
11839;SDS011;5979;50.800;4.904;2023-11-21T09:22:48;16.98;;;11.82;;
11839;SDS011;5979;50.800;4.904;2023-11-21T09:25:14;16.35;;;11.13;;
11839;SDS011;5979;50.800;4.904;2023-11-21T09:27:40;16.02;;;10.02;;
11839;SDS011;5979;50.800;4.904;2023-11-21T09:36:18;19.65;;;11.35;;
11839;SDS011;5979;50.800;4.904;2023-11-21T09:38:44;18.40;;;11.48;;
11839;SDS011;5979;50.800;4.904;2023-11-21T09:41:16;20.48;;;12.68;;
11839;SDS011;5979;50.800;4.904;2023-11-21T09:43:49;20.67;;;11.80;;
11839;SDS011;5979;50.800;4.904;2023-11-21T09:46:20;19.83;;;13.18;;
11839;SDS011;5979;50.800;4.904;2023-11-21T09:48:50;22.42;;;14.30;;
11839;SDS011;5979;50.800;4.904;2023-11-21T09:51:19;19.05;;;13.52;;
11839;SDS011;5979;50.800;4.904;2023-11-21T09:53:48;18.67;;;13.48;;
11839;SDS011;5979;50.800;4.904;2023-11-21T09:56:17;25.08;;;14.70;;
11839;SDS011;5979;50.800;4.904;2023-11-21T09:58:50;24.05;;;13.70;;
11839;SDS011;5979;50.800;4.904;2023-11-21T10:01:18;22.65;;;13.23;;
11839;SDS011;5979;50.800;4.904;2023-11-21T10:03:44;25.75;;;14.27;;
11839;SDS011;5979;50.800;4.904;2023-11-21T10:06:12;22.65;;;13.88;;
11839;SDS011;5979;50.800;4.904;2023-11-21T10:08:41;22.25;;;15.02;;
11839;SDS011;5979;50.800;4.904;2023-11-21T10:11:07;22.20;;;14.80;;
11839;SDS011;5979;50.800;4.904;2023-11-21T10:13:36;23.60;;;14.77;;
11839;SDS011;5979;50.800;4.904;2023-11-21T10:16:03;21.17;;;13.45;;
11839;SDS011;5979;50.800;4.904;2023-11-21T10:18:32;23.70;;;16.58;;
11839;SDS011;5979;50.800;4.904;2023-11-21T10:20:59;24.73;;;15.88;;
11839;SDS011;5979;50.800;4.904;2023-11-21T10:23:25;26.25;;;15.95;;
11839;SDS011;5979;50.800;4.904;2023-11-21T10:25:52;23.02;;;15.15;;
11839;SDS011;5979;50.800;4.904;2023-11-21T10:28:18;24.35;;;14.82;;
11839;SDS011;5979;50.800;4.904;2023-11-21T10:30:45;25.08;;;14.38;;
11839;SDS011;5979;50.800;4.904;2023-11-21T10:33:11;19.50;;;13.63;;
11839;SDS011;5979;50.800;4.904;2023-11-21T10:35:47;28.20;;;16.63;;
11839;SDS011;5979;50.800;4.904;2023-11-21T10:38:18;30.45;;;17.23;;
11839;SDS011;5979;50.800;4.904;2023-11-21T10:40:46;32.90;;;18.38;;
11839;SDS011;5979;50.800;4.904;2023-11-21T10:43:12;32.92;;;17.45;;
11839;SDS011;5979;50.800;4.904;2023-11-21T10:45:40;35.72;;;19.20;;
11839;SDS011;5979;50.800;4.904;2023-11-21T10:48:11;35.65;;;18.88;;
11839;SDS011;5979;50.800;4.904;2023-11-21T10:50:42;33.22;;;18.67;;
11839;SDS011;5979;50.800;4.904;2023-11-21T10:53:11;36.00;;;17.38;;
11839;SDS011;5979;50.800;4.904;2023-11-21T10:55:38;36.80;;;20.30;;
11839;SDS011;5979;50.800;4.904;2023-11-21T10:58:04;39.50;;;20.60;;
11839;SDS011;5979;50.800;4.904;2023-11-21T11:00:31;35.67;;;19.30;;
11839;SDS011;5979;50.800;4.904;2023-11-21T11:05:43;29.63;;;17.30;;
11839;SDS011;5979;50.800;4.904;2023-11-21T11:08:16;31.83;;;19.05;;
11839;SDS011;5979;50.800;4.904;2023-11-21T11:10:50;36.92;;;20.63;;
11839;SDS011;5979;50.800;4.904;2023-11-21T11:13:16;36.58;;;20.20;;
11839;SDS011;5979;50.800;4.904;2023-11-21T11:15:42;36.30;;;20.33;;
11839;SDS011;5979;50.800;4.904;2023-11-21T11:18:09;40.85;;;21.52;;
11839;SDS011;5979;50.800;4.904;2023-11-21T11:20:36;39.65;;;20.67;;
11839;SDS011;5979;50.800;4.904;2023-11-21T11:31:27;29.92;;;18.60;;
11839;SDS011;5979;50.800;4.904;2023-11-21T11:33:58;29.23;;;18.42;;
11839;SDS011;5979;50.800;4.904;2023-11-21T11:36:49;29.25;;;17.40;;
11839;SDS011;5979;50.800;4.904;2023-11-21T11:39:35;30.63;;;17.75;;
11839;SDS011;5979;50.800;4.904;2023-11-21T11:42:08;24.35;;;16.52;;
11839;SDS011;5979;50.800;4.904;2023-11-21T11:47:24;25.95;;;16.63;;
11839;SDS011;5979;50.800;4.904;2023-11-21T11:50:08;28.05;;;17.23;;
11839;SDS011;5979;50.800;4.904;2023-11-21T11:52:42;27.23;;;16.65;;
11839;SDS011;5979;50.800;4.904;2023-11-21T11:55:13;24.42;;;16.20;;
11839;SDS011;5979;50.800;4.904;2023-11-21T11:57:41;26.58;;;15.93;;
11839;SDS011;5979;50.800;4.904;2023-11-21T12:00:11;25.80;;;15.65;;
11839;SDS011;5979;50.800;4.904;2023-11-21T12:02:46;25.58;;;16.38;;
11839;SDS011;5979;50.800;4.904;2023-11-21T12:05:23;27.30;;;15.88;;
11839;SDS011;5979;50.800;4.904;2023-11-21T12:07:52;27.80;;;15.65;;
11839;SDS011;5979;50.800;4.904;2023-11-21T12:10:26;27.40;;;15.38;;
11839;SDS011;5979;50.800;4.904;2023-11-21T12:12:57;25.58;;;14.80;;
11839;SDS011;5979;50.800;4.904;2023-11-21T12:15:24;25.63;;;14.95;;
11839;SDS011;5979;50.800;4.904;2023-11-21T12:17:51;26.30;;;15.75;;
11839;SDS011;5979;50.800;4.904;2023-11-21T12:20:21;25.52;;;15.73;;
11839;SDS011;5979;50.800;4.904;2023-11-21T12:22:49;25.70;;;15.75;;
11839;SDS011;5979;50.800;4.904;2023-11-21T12:25:22;24.60;;;15.88;;
11839;SDS011;5979;50.800;4.904;2023-11-21T12:27:50;26.60;;;15.25;;
11839;SDS011;5979;50.800;4.904;2023-11-21T12:30:18;25.40;;;17.00;;
11839;SDS011;5979;50.800;4.904;2023-11-21T12:32:48;25.42;;;16.25;;
11839;SDS011;5979;50.800;4.904;2023-11-21T12:35:16;27.25;;;15.45;;
11839;SDS011;5979;50.800;4.904;2023-11-21T12:37:45;25.60;;;16.23;;
11839;SDS011;5979;50.800;4.904;2023-11-21T12:40:12;28.10;;;14.73;;
11839;SDS011;5979;50.800;4.904;2023-11-21T12:42:40;24.27;;;15.48;;
11839;SDS011;5979;50.800;4.904;2023-11-21T12:47:45;21.90;;;13.75;;
11839;SDS011;5979;50.800;4.904;2023-11-21T12:50:23;23.25;;;14.18;;
11839;SDS011;5979;50.800;4.904;2023-11-21T12:52:53;19.00;;;13.30;;
11839;SDS011;5979;50.800;4.904;2023-11-21T12:55:23;18.35;;;13.70;;
11839;SDS011;5979;50.800;4.904;2023-11-21T12:57:54;18.33;;;12.68;;
11839;SDS011;5979;50.800;4.904;2023-11-21T13:00:27;17.27;;;12.63;;
11839;SDS011;5979;50.800;4.904;2023-11-21T13:02:57;17.30;;;12.10;;
11839;SDS011;5979;50.800;4.904;2023-11-21T13:05:27;17.60;;;11.07;;
11839;SDS011;5979;50.800;4.904;2023-11-21T13:07:58;16.95;;;11.57;;
11839;SDS011;5979;50.800;4.904;2023-11-21T13:10:28;13.05;;;10.02;;
11839;SDS011;5979;50.800;4.904;2023-11-21T13:12:56;14.18;;;11.35;;
11839;SDS011;5979;50.800;4.904;2023-11-21T13:15:29;14.48;;;10.05;;
11839;SDS011;5979;50.800;4.904;2023-11-21T13:17:56;13.70;;;10.13;;
11839;SDS011;5979;50.800;4.904;2023-11-21T13:20:25;13.88;;;9.50;;
11839;SDS011;5979;50.800;4.904;2023-11-21T13:25:22;11.43;;;9.75;;
11839;SDS011;5979;50.800;4.904;2023-11-21T13:27:48;13.85;;;9.70;;
11839;SDS011;5979;50.800;4.904;2023-11-21T13:30:15;13.20;;;9.60;;
11839;SDS011;5979;50.800;4.904;2023-11-21T13:32:45;11.63;;;9.05;;
11839;SDS011;5979;50.800;4.904;2023-11-21T13:35:16;11.60;;;9.77;;
11839;SDS011;5979;50.800;4.904;2023-11-21T13:37:56;13.25;;;9.32;;
11839;SDS011;5979;50.800;4.904;2023-11-21T13:40:25;14.13;;;9.60;;
11839;SDS011;5979;50.800;4.904;2023-11-21T13:42:52;12.02;;;9.18;;
11839;SDS011;5979;50.800;4.904;2023-11-21T13:45:19;12.15;;;8.68;;
11839;SDS011;5979;50.800;4.904;2023-11-21T13:47:47;12.02;;;9.27;;
11839;SDS011;5979;50.800;4.904;2023-11-21T13:50:16;12.27;;;8.48;;
11839;SDS011;5979;50.800;4.904;2023-11-21T13:52:47;10.35;;;7.78;;
11839;SDS011;5979;50.800;4.904;2023-11-21T13:55:14;11.20;;;8.35;;
11839;SDS011;5979;50.800;4.904;2023-11-21T13:57:44;10.80;;;7.38;;
11839;SDS011;5979;50.800;4.904;2023-11-21T14:00:12;7.18;;;6.13;;
11839;SDS011;5979;50.800;4.904;2023-11-21T14:02:58;7.90;;;6.82;;
11839;SDS011;5979;50.800;4.904;2023-11-21T14:05:30;10.63;;;7.15;;
11839;SDS011;5979;50.800;4.904;2023-11-21T14:07:59;9.73;;;7.72;;
11839;SDS011;5979;50.800;4.904;2023-11-21T14:10:30;9.25;;;7.03;;
11839;SDS011;5979;50.800;4.904;2023-11-21T14:13:07;10.18;;;7.75;;
11839;SDS011;5979;50.800;4.904;2023-11-21T14:15:35;10.93;;;7.18;;
11839;SDS011;5979;50.800;4.904;2023-11-21T14:18:07;7.38;;;6.43;;
11839;SDS011;5979;50.800;4.904;2023-11-21T14:20:36;7.95;;;7.00;;
11839;SDS011;5979;50.800;4.904;2023-11-21T14:23:03;6.78;;;6.00;;
11839;SDS011;5979;50.800;4.904;2023-11-21T14:25:32;7.32;;;6.22;;
11839;SDS011;5979;50.800;4.904;2023-11-21T14:28:02;9.15;;;6.43;;
11839;SDS011;5979;50.800;4.904;2023-11-21T14:30:29;7.55;;;5.95;;
11839;SDS011;5979;50.800;4.904;2023-11-21T14:32:58;9.05;;;5.68;;
11839;SDS011;5979;50.800;4.904;2023-11-21T14:35:24;6.47;;;4.88;;
11839;SDS011;5979;50.800;4.904;2023-11-21T14:37:51;7.95;;;5.70;;
11839;SDS011;5979;50.800;4.904;2023-11-21T14:40:17;6.45;;;5.85;;
11839;SDS011;5979;50.800;4.904;2023-11-21T14:42:47;8.07;;;5.97;;
11839;SDS011;5979;50.800;4.904;2023-11-21T14:45:13;6.43;;;5.28;;
11839;SDS011;5979;50.800;4.904;2023-11-21T14:47:44;8.73;;;5.60;;
11839;SDS011;5979;50.800;4.904;2023-11-21T14:50:16;6.90;;;5.65;;
11839;SDS011;5979;50.800;4.904;2023-11-21T14:53:00;6.35;;;5.75;;
11839;SDS011;5979;50.800;4.904;2023-11-21T14:55:30;7.25;;;6.05;;
11839;SDS011;5979;50.800;4.904;2023-11-21T14:58:21;7.18;;;5.70;;
11839;SDS011;5979;50.800;4.904;2023-11-21T15:00:57;6.95;;;5.50;;
11839;SDS011;5979;50.800;4.904;2023-11-21T15:03:24;6.50;;;5.75;;
11839;SDS011;5979;50.800;4.904;2023-11-21T15:05:57;6.80;;;5.97;;
11839;SDS011;5979;50.800;4.904;2023-11-21T15:08:24;7.65;;;6.45;;